Time;durP1;ratioP1;P1;durP2;ratioP2;P2;SDS_P1;SDS_P2;PMS_P1;PMS_P2;Temp;Humidity;BMP_temperature;BMP_pressure;BME280_temperature;BME280_humidity;BME280_pressure;Samples;Min_cycle;Max_cycle;Signal;HPM_P1;HPM_P2
2023/10/30 00:45:47;;;;;;;7.8;1.3;;;;;;;;;;;;;-79
2023/10/30 05:10:50;;;;;;;;;;;;;;;;;;;;;
2023/10/30 05:51:55;;;;;;;;;;;;;;;9.11;100;99816.51;;;;-76
2023/10/30 08:35:42;;;;;;;;;;;;;;;10.55;100;99902.44;;;;-77
2023/10/30 08:50:03;;;;;;;;;;;;;;;;;;;;;
2023/10/30 08:54:47;;;;;;;;;;;;;;;11.11;100;99913.87;;;;-78
2023/10/30 17:10:02;;;;;;;;;;;;;;;11.65;100;99664.59;;;;-75
2023/10/30 17:15:01;;;;;;;;;;;;;;;11.57;100;99669.17;;;;-75
2023/10/30 17:16:04;;;;;;;16.9;5.9;;;;;;;;;;;;;-75
2023/10/30 17:20:01;;;;;;;;;;;;;;;11.53;100;99678.31;;;;-76
2023/10/30 17:25:01;;;;;;;;;;;;;;;11.51;100;99690.2;;;;-75
2023/10/30 17:30:01;;;;;;;;;;;;;;;11.48;100;99687.41;;;;-74
2023/10/30 17:35:01;;;;;;;;;;;;;;;11.43;100;99706.84;;;;-77
2023/10/30 17:40:02;;;;;;;;;;;;;;;11.41;100;99704.38;;;;-74
2023/10/30 17:45:02;;;;;;;;;;;;;;;11.4;100;99694.52;;;;-76
2023/10/30 17:46:05;;;;;;;14.2;3.9;;;;;;;;;;;;;-75
2023/10/30 17:50:01;;;;;;;;;;;;;;;11.36;100;99691.98;;;;-75
2023/10/30 17:55:05;;;;;;;;;;;;;;;11.32;100;99685.79;;;;-76
2023/10/30 18:32:59;;;;;;;;;;;;;;;11.27;100;99648.59;;;;-74
2023/10/30 18:38:00;;;;;;;;;;;;;;;11.25;100;99648.16;;;;-74
2023/10/30 18:42:55;;;;;;;;;;;;;;;11.23;100;99648.5;;;;-75
2023/10/30 18:46:10;;;;;;;17.7;7.8;;;;;;;;;;;;;-75
2023/10/30 18:47:56;;;;;;;;;;;;;;;11.19;100;99652.28;;;;-75
2023/10/30 18:52:58;;;;;;;;;;;;;;;11.15;100;99646.6;;;;-74
2023/10/30 18:57:56;;;;;;;;;;;;;;;11.12;100;99646.88;;;;-74
2023/10/30 19:02:55;;;;;;;;;;;;;;;11.1;100;99632.98;;;;-74
2023/10/30 19:07:55;;;;;;;;;;;;;;;11.11;100;99616.09;;;;-74
2023/10/30 19:12:55;;;;;;;;;;;;;;;11.07;100;99612.21;;;;-75
2023/10/30 19:16:10;;;;;;;23.2;11.6;;;;;;;;;;;;;-74
2023/10/30 19:17:55;;;;;;;;;;;;;;;11.11;100;99618.81;;;;-74
2023/10/30 19:22:55;;;;;;;;;;;;;;;11.08;100;99626.26;;;;-75
2023/10/30 19:28:00;;;;;;;;;;;;;;;10.99;100;99630.27;;;;-75
2023/10/30 19:32:55;;;;;;;;;;;;;;;10.91;100;99631.97;;;;-75
2023/10/30 19:37:55;;;;;;;;;;;;;;;10.82;100;99623.76;;;;-76
2023/10/30 19:42:59;;;;;;;;;;;;;;;10.64;100;99629.47;;;;-75
2023/10/30 19:46:12;;;;;;;6;2;;;;;;;;;;;;;-74
2023/10/30 19:47:55;;;;;;;;;;;;;;;10.53;100;99623.58;;;;-75
2023/10/30 19:52:58;;;;;;;;;;;;;;;10.46;100;99623.72;;;;-75
2023/10/30 19:57:56;;;;;;;;;;;;;;;10.45;100;99629.08;;;;-75
2023/10/30 20:02:56;;;;;;;;;;;;;;;10.44;100;99625.5;;;;-76
2023/10/30 20:07:55;;;;;;;;;;;;;;;10.44;100;99630.44;;;;-74
2023/10/30 20:12:55;;;;;;;;;;;;;;;10.44;100;99627.9;;;;-74
2023/10/30 20:16:13;;;;;;;8.1;3.1;;;;;;;;;;;;;-75
2023/10/30 20:17:57;;;;;;;;;;;;;;;10.42;100;99622.75;;;;-77
2023/10/30 20:23:00;;;;;;;;;;;;;;;10.42;100;99619.28;;;;-76
